Time;durP1;ratioP1;P1;durP2;ratioP2;P2;SDS_P1;SDS_P2;PMS_P1;PMS_P2;Temp;Humidity;BMP_temperature;BMP_pressure;BME280_temperature;BME280_humidity;BME280_pressure;Samples;Min_cycle;Max_cycle;Signal;HPM_P1;HPM_P2
2023/03/25 00:02:05;;;;;;;4.30;1.80;;;;;;;10.02;100.00;99530.28;5062725;28;20048;-75
2023/03/25 00:04:31;;;;;;;5.20;2.05;;;;;;;10.03;100.00;99529.41;5063879;28;20036;-75
2023/03/25 00:06:56;;;;;;;5.30;1.70;;;;;;;10.05;100.00;99524.06;5060437;28;20486;-75
2023/03/25 00:09:22;;;;;;;4.55;2.10;;;;;;;9.98;100.00;99523.34;5062868;28;20105;-75
2023/03/25 00:11:51;;;;;;;5.05;1.73;;;;;;;9.91;100.00;99531.41;5060445;28;20108;-75
2023/03/25 00:14:16;;;;;;;5.22;1.70;;;;;;;9.84;100.00;99530.63;5063618;28;20032;-75
2023/03/25 00:16:47;;;;;;;3.47;1.58;;;;;;;9.81;100.00;99525.44;5057343;28;20067;-75
2023/03/25 00:19:15;;;;;;;4.82;1.83;;;;;;;9.72;100.00;99520.31;5062473;28;20040;-75
2023/03/25 00:21:43;;;;;;;6.47;2.00;;;;;;;9.68;100.00;99514.25;5060828;28;20047;-76
2023/03/25 00:24:16;;;;;;;5.28;1.60;;;;;;;9.68;100.00;99511.63;5063455;28;20040;-75
2023/03/25 00:26:41;;;;;;;4.93;1.98;;;;;;;9.69;100.00;99509.84;5063659;28;20032;-75
2023/03/25 00:29:08;;;;;;;7.35;1.90;;;;;;;9.72;100.00;99493.97;5042117;28;20041;-75
2023/03/25 00:31:34;;;;;;;6.45;1.80;;;;;;;9.73;100.00;99495.72;5066711;28;20159;-75
2023/03/25 00:33:59;;;;;;;5.85;2.20;;;;;;;9.65;100.00;99491.47;5062791;28;20040;-76
2023/03/25 00:36:25;;;;;;;4.63;1.83;;;;;;;9.62;100.00;99493.28;5063395;28;20071;-75
2023/03/25 00:38:50;;;;;;;6.45;2.10;;;;;;;9.65;100.00;99490.59;5059529;28;20033;-76
2023/03/25 00:41:24;;;;;;;6.35;2.42;;;;;;;9.68;100.00;99492.31;5045015;28;20037;-75
2023/03/25 00:43:58;;;;;;;6.22;2.22;;;;;;;9.65;100.00;99477.44;5062278;28;20045;-75
2023/03/25 00:46:26;;;;;;;5.78;2.22;;;;;;;9.56;100.00;99483.75;5061070;28;20036;-76
2023/03/25 00:48:53;;;;;;;4.70;1.95;;;;;;;9.48;100.00;99480.34;5043659;28;20068;-75
2023/03/25 00:51:20;;;;;;;6.22;1.75;;;;;;;9.41;100.00;99482.25;5042483;28;20032;-75
2023/03/25 00:53:51;;;;;;;6.00;2.40;;;;;;;9.31;100.00;99480.69;5062268;28;20178;-76
2023/03/25 00:56:16;;;;;;;6.10;2.70;;;;;;;9.15;100.00;99476.59;5043986;28;20037;-76
2023/03/25 00:58:42;;;;;;;6.75;2.40;;;;;;;9.05;100.00;99478.50;5064756;28;20037;-78
2023/03/25 01:01:12;;;;;;;4.63;2.00;;;;;;;8.96;100.00;99470.75;5068499;28;20035;-76
2023/03/25 01:03:38;;;;;;;5.30;2.30;;;;;;;8.93;100.00;99482.22;5059940;28;20414;-75
2023/03/25 01:06:12;;;;;;;7.20;2.10;;;;;;;8.91;100.00;99477.88;5050294;28;20367;-76
2023/03/25 01:08:38;;;;;;;4.43;2.03;;;;;;;8.90;100.00;99486.63;5061451;28;20116;-76
2023/03/25 01:11:05;;;;;;;6.50;2.35;;;;;;;8.93;100.00;99486.59;5060286;28;20089;-76
2023/03/25 01:13:30;;;;;;;7.50;2.80;;;;;;;9.02;100.00;99477.69;5065381;28;20033;-76
2023/03/25 01:15:55;;;;;;;4.72;2.28;;;;;;;9.12;100.00;99461.72;5041874;28;20510;-76
2023/03/25 01:18:21;;;;;;;9.35;3.03;;;;;;;9.31;100.00;99464.88;5061682;28;20457;-76
2023/03/25 01:20:46;;;;;;;8.40;2.78;;;;;;;9.50;100.00;99480.34;5066682;28;20438;-76
2023/03/25 01:23:12;;;;;;;6.88;2.53;;;;;;;9.68;100.00;99460.69;5045960;28;20049;-76
2023/03/25 01:25:37;;;;;;;7.30;2.65;;;;;;;9.81;100.00;99462.19;5067839;28;20036;-76
2023/03/25 01:28:03;;;;;;;9.68;2.78;;;;;;;9.95;100.00;99469.81;5063656;28;20033;-76
2023/03/25 01:30:28;;;;;;;7.72;3.28;;;;;;;10.01;100.00;99460.00;5065867;28;20467;-76
2023/03/25 01:32:54;;;;;;;5.65;2.47;;;;;;;10.08;100.00;99466.88;5063444;28;20028;-76
2023/03/25 01:35:19;;;;;;;13.25;3.00;;;;;;;10.12;100.00;99457.16;5069547;28;20037;-76
2023/03/25 01:37:45;;;;;;;4.47;2.28;;;;;;;10.13;100.00;99453.59;5066149;28;20032;-76
2023/03/25 01:40:18;;;;;;;7.28;2.70;;;;;;;10.16;100.00;99455.31;5053026;28;20040;-77
2023/03/25 01:42:43;;;;;;;6.72;2.33;;;;;;;10.14;100.00;99450.06;5063498;28;20114;-76
2023/03/25 01:45:20;;;;;;;6.75;2.20;;;;;;;10.12;100.00;99432.56;5069674;28;20485;-76
2023/03/25 01:47:49;;;;;;;8.07;2.58;;;;;;;10.09;100.00;99423.81;5062473;28;20036;-76
2023/03/25 01:50:16;;;;;;;6.88;2.55;;;;;;;10.09;100.00;99426.44;5065112;28;20028;-77
2023/03/25 01:52:46;;;;;;;4.47;2.25;;;;;;;10.10;100.00;99422.03;5065095;28;20033;-76
2023/03/25 01:55:12;;;;;;;8.27;2.92;;;;;;;10.00;100.00;99416.09;5063333;28;20491;-77
2023/03/25 01:57:42;;;;;;;6.70;2.50;;;;;;;9.90;100.00;99409.28;5066394;28;20025;-77
2023/03/25 02:00:09;;;;;;;4.93;2.10;;;;;;;9.70;100.00;99408.84;5064963;28;20506;-76
2023/03/25 02:02:39;;;;;;;5.70;2.10;;;;;;;9.60;100.00;99406.38;5063878;28;20041;-76
2023/03/25 02:05:16;;;;;;;7.00;2.38;;;;;;;9.54;100.00;99401.25;5048099;28;20491;-77
2023/03/25 02:07:46;;;;;;;5.63;2.95;;;;;;;9.51;100.00;99401.31;5065900;28;20629;-77
2023/03/25 02:10:13;;;;;;;5.53;2.33;;;;;;;9.49;100.00;99397.84;5065567;28;20017;-77
2023/03/25 02:12:39;;;;;;;7.82;2.55;;;;;;;9.42;100.00;99393.56;5055388;28;20481;-77
2023/03/25 02:15:07;;;;;;;7.00;2.30;;;;;;;9.48;100.00;99405.75;5048220;28;20499;-76
2023/03/25 02:17:42;;;;;;;5.80;2.40;;;;;;;9.57;100.00;99388.00;5061748;28;20139;-77
2023/03/25 02:20:53;;;;;;;6.20;2.38;;;;;;;9.69;100.00;99391.28;5077898;22;20025;-78
2023/03/25 02:23:40;;;;;;;4.20;1.73;;;;;;;9.75;100.00;99389.41;5060701;28;20044;-77
2023/03/25 02:26:18;;;;;;;9.13;2.40;;;;;;;9.76;100.00;99380.59;5078371;28;20201;-77
2023/03/25 02:28:55;;;;;;;7.75;2.17;;;;;;;9.85;100.00;99374.25;5083311;28;20054;-77
2023/03/25 02:31:36;;;;;;;7.10;1.88;;;;;;;9.86;100.00;99371.59;5051403;28;20471;-77
2023/03/25 02:34:20;;;;;;;3.83;1.83;;;;;;;9.91;100.00;99374.13;5061905;28;20037;-78
2023/03/25 02:37:00;;;;;;;8.25;1.98;;;;;;;9.95;100.00;99370.50;5064183;28;20486;-77
2023/03/25 02:39:51;;;;;;;7.40;1.95;;;;;;;10.05;100.00;99358.84;5062713;28;20137;-78
2023/03/25 02:42:32;;;;;;;5.68;2.08;;;;;;;10.10;100.00;99356.97;5044363;28;20064;-77
2023/03/25 02:45:07;;;;;;;6.47;2.00;;;;;;;10.13;100.00;99356.03;5057952;28;20399;-77
2023/03/25 02:47:39;;;;;;;4.57;2.10;;;;;;;10.25;100.00;99349.63;5063101;28;20051;-78
2023/03/25 02:50:12;;;;;;;5.53;2.60;;;;;;;10.20;100.00;99355.00;5062816;28;20039;-77
2023/03/25 02:52:43;;;;;;;5.20;2.40;;;;;;;10.20;100.00;99356.78;5061503;28;20494;-77
2023/03/25 02:55:13;;;;;;;6.47;2.30;;;;;;;10.14;100.00;99354.28;5061016;28;20025;-77
2023/03/25 02:57:40;;;;;;;6.88;2.00;;;;;;;10.14;100.00;99359.53;5061743;28;20045;-78
2023/03/25 03:00:14;;;;;;;7.25;2.30;;;;;;;10.10;100.00;99364.88;5061824;28;20056;-77
2023/03/25 03:03:00;;;;;;;9.57;2.70;;;;;;;10.04;100.00;99365.03;5056421;28;20515;-78
2023/03/25 03:05:28;;;;;;;7.43;2.30;;;;;;;10.00;100.00;99357.22;5061386;28;20048;-77
2023/03/25 03:08:19;;;;;;;6.38;2.13;;;;;;;9.98;100.00;99356.38;5062675;28;20041;-77
2023/03/25 03:11:16;;;;;;;4.45;2.08;;;;;;;9.95;100.00;99359.97;5059356;28;20111;-77
2023/03/25 03:14:12;;;;;;;6.53;2.20;;;;;;;9.94;100.00;99347.69;5062675;28;20040;-77
2023/03/25 03:17:11;;;;;;;7.68;2.15;;;;;;;9.89;100.00;99349.56;5061018;28;20037;-78
2023/03/25 03:19:59;;;;;;;6.40;2.10;;;;;;;9.94;100.00;99336.28;5063831;28;20496;-77
2023/03/25 03:22:45;;;;;;;7.82;2.33;;;;;;;9.93;100.00;99340.72;5062508;28;20040;-77
2023/03/25 03:25:26;;;;;;;6.88;2.55;;;;;;;9.93;100.00;99345.09;5063963;28;20082;-77
2023/03/25 03:28:10;;;;;;;6.13;1.70;;;;;;;9.93;100.00;99337.19;5064947;28;20498;-76
2023/03/25 03:30:41;;;;;;;6.57;1.67;;;;;;;9.91;100.00;99334.59;5061431;28;20102;-77
2023/03/25 03:33:35;;;;;;;4.88;2.30;;;;;;;9.91;100.00;99342.50;5061538;28;20103;-78
2023/03/25 03:36:09;;;;;;;8.52;2.40;;;;;;;9.84;100.00;99346.16;5063573;28;20033;-77
2023/03/25 03:38:40;;;;;;;5.68;1.70;;;;;;;9.82;100.00;99345.31;5056791;28;20086;-77
2023/03/25 03:41:10;;;;;;;8.32;2.03;;;;;;;9.76;100.00;99353.38;5061977;28;20071;-77
2023/03/25 03:43:44;;;;;;;7.00;2.20;;;;;;;9.73;100.00;99359.56;5064158;28;20032;-77
2023/03/25 03:46:17;;;;;;;6.15;2.13;;;;;;;9.69;100.00;99362.31;5060641;28;20040;-77
2023/03/25 03:48:54;;;;;;;7.50;1.83;;;;;;;9.65;100.00;99366.78;5057665;28;20040;-77
2023/03/25 03:51:28;;;;;;;5.88;2.13;;;;;;;9.61;100.00;99365.97;5062250;28;20471;-77
2023/03/25 03:53:59;;;;;;;5.25;2.17;;;;;;;9.60;100.00;99366.88;5062751;28;20041;-77
2023/03/25 03:56:45;;;;;;;6.10;2.10;;;;;;;9.63;100.00;99368.56;5057793;28;20033;-78
2023/03/25 03:59:19;;;;;;;4.82;2.20;;;;;;;9.63;100.00;99360.66;5062210;28;20040;-76
2023/03/25 04:01:54;;;;;;;5.15;1.88;;;;;;;9.62;100.00;99367.72;5057727;28;20052;-77
2023/03/25 04:04:33;;;;;;;5.63;1.80;;;;;;;9.64;100.00;99371.19;5060029;28;20041;-77
2023/03/25 04:07:15;;;;;;;6.05;2.13;;;;;;;9.69;100.00;99378.97;5064152;28;20600;-77
2023/03/25 04:10:01;;;;;;;6.72;1.65;;;;;;;9.71;100.00;99371.03;5060522;28;20119;-77
2023/03/25 04:12:34;;;;;;;3.58;1.88;;;;;;;9.74;100.00;99378.88;5058519;28;20047;-77
2023/03/25 04:15:02;;;;;;;4.63;1.77;;;;;;;9.76;100.00;99374.44;5058995;28;20033;-77
2023/03/25 04:17:31;;;;;;;6.32;2.97;;;;;;;9.71;100.00;99371.91;5062429;28;20924;-77
2023/03/25 04:19:57;;;;;;;5.20;1.85;;;;;;;9.70;100.00;99367.56;5062900;28;20047;-77
2023/03/25 04:22:23;;;;;;;3.97;1.65;;;;;;;9.71;100.00;99386.84;5060247;28;20041;-77
2023/03/25 04:24:50;;;;;;;4.10;1.83;;;;;;;9.73;100.00;99383.28;5059890;28;20037;-76
2023/03/25 04:27:16;;;;;;;3.70;1.40;;;;;;;9.74;100.00;99382.38;5063657;28;20478;-77
2023/03/25 04:29:46;;;;;;;4.78;1.77;;;;;;;9.73;100.00;99385.06;5059783;28;20384;-76
2023/03/25 04:32:12;;;;;;;4.68;1.30;;;;;;;9.76;100.00;99385.00;5061978;28;20483;-77
2023/03/25 04:34:38;;;;;;;7.22;2.30;;;;;;;9.76;100.00;99385.00;5062842;28;20043;-75
2023/03/25 04:37:03;;;;;;;4.07;1.38;;;;;;;9.80;100.00;99381.41;5062405;28;20489;-77
2023/03/25 04:39:31;;;;;;;3.50;1.30;;;;;;;9.81;100.00;99377.84;5056060;28;20040;-77
2023/03/25 04:42:00;;;;;;;5.60;1.35;;;;;;;9.81;100.00;99394.53;5053112;28;20041;-76
2023/03/25 04:44:27;;;;;;;4.90;1.67;;;;;;;9.82;100.00;99374.31;5053207;28;20037;-77
2023/03/25 04:46:54;;;;;;;5.35;1.27;;;;;;;9.81;100.00;99378.72;5052840;28;20045;-77
2023/03/25 04:49:22;;;;;;;5.32;1.42;;;;;;;9.81;100.00;99380.50;5060338;28;20041;-77
2023/03/25 04:51:50;;;;;;;3.40;1.10;;;;;;;9.80;100.00;99381.41;5059422;28;20035;-77
2023/03/25 04:54:16;;;;;;;4.95;1.40;;;;;;;9.81;100.00;99380.50;5058042;28;20090;-76
2023/03/25 04:56:42;;;;;;;4.35;1.40;;;;;;;9.86;100.00;99379.50;5058893;28;20167;-76
2023/03/25 04:59:09;;;;;;;2.50;1.08;;;;;;;9.90;100.00;99382.06;5063040;28;20054;-76
2023/03/25 05:01:40;;;;;;;3.63;1.02;;;;;;;9.93;100.00;99384.63;5037837;28;20039;-77
2023/03/25 05:04:11;;;;;;;4.13;1.27;;;;;;;9.96;100.00;99377.53;5058602;28;20040;-77
2023/03/25 05:06:42;;;;;;;3.00;0.95;;;;;;;10.01;100.00;99374.81;5058458;28;20032;-77
2023/03/25 05:09:13;;;;;;;3.55;0.95;;;;;;;10.04;100.00;99380.00;5043913;28;20109;-77
2023/03/25 05:11:40;;;;;;;5.60;1.00;;;;;;;10.07;100.00;99378.16;5056925;28;20028;-78
2023/03/25 05:14:06;;;;;;;4.22;1.00;;;;;;;10.12;100.00;99374.56;5059194;28;20079;-77
2023/03/25 05:16:32;;;;;;;6.00;1.83;;;;;;;10.18;100.00;99374.41;5062808;28;20064;-77
2023/03/25 05:18:57;;;;;;;5.13;1.40;;;;;;;10.21;100.00;99382.25;5059711;28;20097;-77
2023/03/25 05:21:23;;;;;;;5.07;1.40;;;;;;;10.21;100.00;99383.09;5061672;28;20036;-77
2023/03/25 05:23:48;;;;;;;5.00;1.23;;;;;;;10.25;100.00;99399.75;5055879;28;20033;-78
2023/03/25 05:26:13;;;;;;;3.83;1.40;;;;;;;10.35;100.00;99397.75;5062648;28;20599;-77
2023/03/25 05:28:40;;;;;;;6.10;1.23;;;;;;;10.41;100.00;99397.66;5059520;28;20120;-78
2023/03/25 05:31:09;;;;;;;3.70;0.77;;;;;;;10.36;100.00;99407.44;5061850;28;20064;-75
2023/03/25 05:33:41;;;;;;;3.50;1.17;;;;;;;10.48;100.00;99402.75;5060309;28;20090;-75
2023/03/25 05:36:11;;;;;;;4.32;0.90;;;;;;;10.44;100.00;99394.94;5060917;28;20041;-74
2023/03/25 05:38:40;;;;;;;4.47;1.80;;;;;;;10.47;100.00;99397.50;5059690;28;20033;-74
2023/03/25 05:41:09;;;;;;;5.40;1.50;;;;;;;10.52;100.00;99399.09;5062172;28;20097;-75
2023/03/25 05:43:36;;;;;;;9.07;1.20;;;;;;;10.52;100.00;99414.94;5058158;28;20037;-74
2023/03/25 05:46:03;;;;;;;6.50;1.58;;;;;;;10.51;100.00;99410.56;5058723;28;20123;-75
2023/03/25 05:48:31;;;;;;;5.55;0.93;;;;;;;10.51;100.00;99413.22;5050450;28;20041;-75
2023/03/25 05:50:57;;;;;;;3.65;0.95;;;;;;;10.64;100.00;99410.28;5059505;28;20500;-76
2023/03/25 05:53:22;;;;;;;4.28;0.90;;;;;;;10.68;100.00;99409.28;5058373;28;20029;-75
2023/03/25 05:55:50;;;;;;;4.40;1.10;;;;;;;10.63;100.00;99416.44;5061150;28;20121;-75
2023/03/25 05:58:16;;;;;;;3.53;0.80;;;;;;;10.58;100.00;99410.41;5057651;28;20044;-75
2023/03/25 06:00:42;;;;;;;5.13;0.70;;;;;;;10.47;100.00;99411.53;5058928;28;20118;-75
2023/03/25 06:03:09;;;;;;;2.00;0.70;;;;;;;10.36;100.00;99417.97;5059015;28;20040;-75
2023/03/25 06:05:38;;;;;;;2.30;0.68;;;;;;;10.20;100.00;99428.84;5063388;28;20715;-75
2023/03/25 06:08:03;;;;;;;2.58;0.63;;;;;;;10.11;100.00;99421.13;5062663;28;20036;-75
2023/03/25 06:10:29;;;;;;;4.40;0.60;;;;;;;10.03;100.00;99418.69;5061228;28;20169;-75
2023/03/25 06:12:54;;;;;;;2.78;0.70;;;;;;;10.04;100.00;99419.53;5063923;28;20468;-75
2023/03/25 06:15:32;;;;;;;3.13;0.50;;;;;;;10.04;100.00;99430.09;5049343;28;20036;-75
2023/03/25 06:17:58;;;;;;;2.35;0.70;;;;;;;10.08;100.00;99429.97;5059253;28;20036;-75
2023/03/25 06:20:23;;;;;;;1.60;0.60;;;;;;;10.15;100.00;99438.63;5062702;28;20043;-75
2023/03/25 06:22:48;;;;;;;2.22;0.50;;;;;;;10.17;100.00;99433.31;5064686;28;20563;-75
2023/03/25 06:25:17;;;;;;;2.38;0.45;;;;;;;10.14;100.00;99433.38;5062243;28;20044;-75
2023/03/25 06:27:43;;;;;;;3.17;0.50;;;;;;;10.04;100.00;99433.59;5063934;28;20032;-75
2023/03/25 06:30:12;;;;;;;2.88;0.60;;;;;;;10.05;100.00;99451.13;5062624;28;20031;-75
2023/03/25 06:32:37;;;;;;;1.90;0.50;;;;;;;10.16;100.00;99447.38;5062523;28;20033;-75
2023/03/25 06:35:06;;;;;;;2.28;0.50;;;;;;;10.26;100.00;99441.88;5061855;28;20071;-77
2023/03/25 06:37:32;;;;;;;1.63;0.47;;;;;;;10.29;100.00;99443.63;5064210;28;20033;-77
2023/03/25 06:40:01;;;;;;;0.95;0.30;;;;;;;10.29;100.00;99448.88;5063305;28;20063;-77
2023/03/25 06:42:27;;;;;;;1.60;0.40;;;;;;;10.34;100.00;99452.28;5058895;28;20056;-77
2023/03/25 06:45:09;;;;;;;1.20;0.50;;;;;;;10.37;100.00;99452.22;5057598;28;20502;-77
2023/03/25 06:47:41;;;;;;;1.98;0.55;;;;;;;10.38;100.00;99451.34;5055950;28;20041;-77
2023/03/25 06:50:07;;;;;;;2.85;0.80;;;;;;;10.49;100.00;99451.94;5060350;28;20089;-76
2023/03/25 06:52:32;;;;;;;2.95;0.82;;;;;;;10.55;100.00;99456.22;5063257;28;20041;-77
2023/03/25 06:54:58;;;;;;;2.53;0.68;;;;;;;10.64;100.00;99463.06;5057806;28;20127;-78
2023/03/25 06:57:23;;;;;;;1.02;0.40;;;;;;;10.77;100.00;99461.88;5054785;28;20490;-76
2023/03/25 06:59:48;;;;;;;3.17;0.68;;;;;;;10.82;97.79;99462.63;5063326;28;20059;-77
2023/03/25 07:02:14;;;;;;;3.88;0.30;;;;;;;10.95;98.53;99461.41;5063244;28;20040;-78
2023/03/25 07:04:40;;;;;;;2.08;0.50;;;;;;;10.91;96.11;99472.09;5042194;28;20098;-77
2023/03/25 07:07:06;;;;;;;2.03;0.50;;;;;;;11.00;96.19;99463.06;5058536;28;20570;-77
2023/03/25 07:09:32;;;;;;;1.77;0.40;;;;;;;11.03;94.96;99461.22;5063354;28;20151;-77
2023/03/25 07:11:57;;;;;;;1.83;0.30;;;;;;;11.03;94.44;99466.50;5064564;28;20028;-77
2023/03/25 07:14:22;;;;;;;2.45;0.50;;;;;;;11.00;94.83;99463.91;5056567;28;20123;-78
2023/03/25 07:16:48;;;;;;;1.58;0.35;;;;;;;10.97;94.43;99459.59;5053354;28;20041;-78
2023/03/25 07:19:13;;;;;;;2.80;0.30;;;;;;;10.99;93.99;99456.91;5061844;28;20062;-77
2023/03/25 07:21:39;;;;;;;0.60;0.28;;;;;;;11.00;93.10;99463.06;5060160;28;20081;-78
2023/03/25 07:24:04;;;;;;;1.15;0.30;;;;;;;10.91;92.75;99472.94;5058942;28;20043;-77
2023/03/25 07:26:30;;;;;;;1.40;0.35;;;;;;;10.84;92.33;99473.13;5053859;28;20104;-77
2023/03/25 07:28:55;;;;;;;2.03;0.35;;;;;;;10.71;92.10;99477.81;5063749;28;20037;-78
2023/03/25 07:31:20;;;;;;;1.92;0.47;;;;;;;10.79;92.47;99481.16;5049823;28;20040;-77
2023/03/25 07:33:46;;;;;;;1.95;0.40;;;;;;;10.79;91.09;99478.50;5058198;28;20032;-77
2023/03/25 07:36:13;;;;;;;1.08;0.30;;;;;;;10.80;91.41;99488.19;5053746;28;20056;-77
2023/03/25 07:38:38;;;;;;;0.85;0.13;;;;;;;10.80;90.72;99492.59;5057310;28;20058;-77
2023/03/25 07:41:06;;;;;;;2.00;0.30;;;;;;;10.83;90.19;99493.38;5055674;28;20037;-77
2023/03/25 07:43:31;;;;;;;2.15;0.30;;;;;;;10.87;89.80;99495.06;5049924;28;20029;-77
2023/03/25 07:46:14;;;;;;;;;;;;;;;11.06;89.90;99498.09;5055819;28;20033;-77
2023/03/25 07:48:40;;;;;;;1.92;0.43;;;;;;;11.07;88.41;99496.34;5056815;28;20298;-77
2023/03/25 07:51:05;;;;;;;1.27;0.35;;;;;;;11.10;88.92;99485.69;5057646;28;20078;-78
2023/03/25 07:53:31;;;;;;;1.23;0.30;;;;;;;11.09;89.00;99495.38;5061921;28;20032;-77
2023/03/25 07:55:56;;;;;;;1.67;0.40;;;;;;;11.00;88.72;99494.75;5051725;28;20677;-77
2023/03/25 07:58:21;;;;;;;2.80;0.40;;;;;;;10.89;87.89;99493.22;5056760;28;20036;-77
2023/03/25 08:00:47;;;;;;;2.17;0.90;;;;;;;10.79;88.71;99499.63;5060564;28;20037;-77
2023/03/25 08:03:13;;;;;;;1.38;0.40;;;;;;;10.81;89.26;99500.47;5055710;28;20041;-78
2023/03/25 08:05:44;;;;;;;2.00;0.30;;;;;;;10.88;88.20;99511.75;5059703;28;20550;-77
2023/03/25 08:08:09;;;;;;;1.75;0.40;;;;;;;10.89;86.90;99505.56;5044311;28;20040;-77
2023/03/25 08:10:35;;;;;;;2.92;0.55;;;;;;;11.06;86.24;99511.31;5059764;28;20394;-77
2023/03/25 08:13:00;;;;;;;2.33;0.30;;;;;;;11.22;87.00;99518.84;5062228;28;20622;-77
2023/03/25 08:15:25;;;;;;;2.88;0.40;;;;;;;11.47;86.00;99509.38;5059614;28;20554;-77
2023/03/25 08:17:52;;;;;;;2.97;0.40;;;;;;;11.55;83.63;99514.47;5061245;28;20047;-77
2023/03/25 08:20:17;;;;;;;2.10;0.45;;;;;;;11.56;82.97;99513.56;5059283;28;20037;-78
2023/03/25 08:22:44;;;;;;;2.58;0.57;;;;;;;11.65;83.53;99513.31;5061179;28;20125;-77
2023/03/25 08:25:09;;;;;;;3.53;0.45;;;;;;;11.83;81.83;99531.31;5055888;28;20119;-77
2023/03/25 08:27:34;;;;;;;2.88;0.50;;;;;;;11.93;82.30;99512.63;5050551;28;20521;-77
2023/03/25 08:30:00;;;;;;;3.47;0.40;;;;;;;11.87;81.35;99510.13;5089450;22;20048;-77
2023/03/25 08:32:27;;;;;;;1.98;0.40;;;;;;;11.95;81.20;99510.78;5067968;28;20111;-77
2023/03/25 08:34:52;;;;;;;1.98;0.50;;;;;;;12.16;80.18;99520.75;5071704;28;20112;-77
2023/03/25 08:37:18;;;;;;;2.40;0.43;;;;;;;12.46;78.95;99518.97;5072003;28;20518;-78
2023/03/25 08:39:44;;;;;;;2.13;0.22;;;;;;;12.56;80.81;99524.88;5067828;28;20029;-77
2023/03/25 08:42:11;;;;;;;3.00;0.52;;;;;;;12.33;78.73;99514.09;5072299;28;20044;-77
2023/03/25 08:44:37;;;;;;;1.83;0.50;;;;;;;12.10;78.59;99520.91;5068379;28;20036;-78
2023/03/25 08:47:03;;;;;;;3.70;0.40;;;;;;;11.70;81.70;99531.69;5072465;28;20491;-78
2023/03/25 08:49:28;;;;;;;1.45;0.32;;;;;;;11.40;82.55;99540.41;5070735;28;20394;-78
2023/03/25 08:51:56;;;;;;;1.23;0.20;;;;;;;11.27;84.36;99532.81;5072087;28;20036;-78
2023/03/25 08:54:22;;;;;;;3.00;0.47;;;;;;;11.21;87.38;99547.03;5072038;28;20066;-77
2023/03/25 08:56:47;;;;;;;1.73;0.38;;;;;;;11.21;89.07;99535.59;5072165;28;20105;-77
2023/03/25 08:59:12;;;;;;;0.82;0.28;;;;;;;11.02;88.67;99553.66;5071058;28;20508;-78
2023/03/25 09:01:38;;;;;;;1.02;0.40;;;;;;;11.11;90.68;99541.13;5070821;28;20043;-78
2023/03/25 09:04:04;;;;;;;2.22;0.50;;;;;;;11.15;93.72;99545.41;5053772;28;20040;-78
2023/03/25 09:06:29;;;;;;;1.58;0.45;;;;;;;11.05;95.17;99541.25;5072019;28;20037;-78
2023/03/25 09:08:55;;;;;;;2.80;0.70;;;;;;;10.99;96.53;99537.91;5070857;28;20118;-77
2023/03/25 09:11:20;;;;;;;1.75;0.43;;;;;;;11.07;94.71;99534.16;5070625;28;20056;-77
2023/03/25 09:13:46;;;;;;;2.30;0.40;;;;;;;11.04;94.95;99541.28;5061028;28;20040;-77
2023/03/25 09:16:11;;;;;;;1.25;0.20;;;;;;;11.26;93.33;99533.72;5071047;28;20133;-77
2023/03/25 09:18:36;;;;;;;2.30;0.32;;;;;;;11.37;92.21;99542.22;5071459;28;20029;-77
2023/03/25 09:21:02;;;;;;;1.35;0.38;;;;;;;11.62;91.43;99534.53;5072718;28;20041;-78
2023/03/25 09:23:28;;;;;;;2.85;0.50;;;;;;;11.85;89.84;99532.16;5074165;28;20274;-77
2023/03/25 09:25:53;;;;;;;1.95;0.45;;;;;;;12.23;88.67;99537.31;5074190;28;20115;-79
2023/03/25 09:28:19;;;;;;;2.65;0.35;;;;;;;12.30;85.92;99540.66;5073966;28;20383;-78
2023/03/25 09:30:44;;;;;;;1.13;0.22;;;;;;;12.11;86.31;99541.19;5074103;28;20020;-79
2023/03/25 09:33:10;;;;;;;1.85;0.30;;;;;;;11.93;86.78;99544.34;5073748;28;20036;-78
2023/03/25 09:35:38;;;;;;;2.92;0.40;;;;;;;11.64;88.10;99545.94;5062346;28;20106;-78
2023/03/25 09:38:04;;;;;;;1.25;0.30;;;;;;;11.59;89.29;99546.06;5072953;28;20044;-78
2023/03/25 09:40:30;;;;;;;3.33;0.38;;;;;;;11.67;89.41;99550.28;5067920;28;20040;-78
2023/03/25 09:43:17;;;;;;;1.13;0.22;;;;;;;11.57;88.69;99549.66;5077857;28;20486;-78
2023/03/25 09:45:48;;;;;;;2.92;0.55;;;;;;;11.52;88.79;99555.03;5074322;28;20036;-78
2023/03/25 09:48:31;;;;;;;1.60;0.38;;;;;;;11.34;89.06;99552.88;5078190;28;20457;-78
2023/03/25 09:51:01;;;;;;;1.95;0.40;;;;;;;11.30;90.16;99556.50;5075158;28;20034;-79
2023/03/25 09:53:37;;;;;;;0.57;0.28;;;;;;;11.29;90.09;99554.75;5059967;28;20043;-78
2023/03/25 09:56:09;;;;;;;2.15;0.50;;;;;;;11.48;88.15;99544.63;5077487;28;20028;-78
2023/03/25 09:58:40;;;;;;;1.00;0.30;;;;;;;11.69;87.90;99549.34;5057534;28;20108;-79
2023/03/25 10:01:25;;;;;;;1.75;0.40;;;;;;;11.99;86.90;99541.50;5077801;28;20037;-77
2023/03/25 10:04:10;;;;;;;1.50;0.50;;;;;;;12.30;85.63;99546.81;5074188;28;20040;-78
2023/03/25 10:06:49;;;;;;;1.08;0.30;;;;;;;12.26;84.17;99540.75;5077803;28;20045;-79
2023/03/25 10:09:38;;;;;;;3.28;0.52;;;;;;;12.14;84.73;99538.44;5074616;28;20041;-79
2023/03/25 10:12:15;;;;;;;1.77;0.30;;;;;;;12.27;82.47;99525.75;5073950;28;20463;-78
2023/03/25 10:15:05;;;;;;;1.13;0.30;;;;;;;12.44;83.79;99533.16;5076723;28;20036;-79
2023/03/25 10:17:44;;;;;;;2.70;0.50;;;;;;;12.67;83.01;99529.84;5076756;28;20032;-78
2023/03/25 10:20:40;;;;;;;1.55;0.40;;;;;;;12.67;81.94;99527.19;5077060;28;20047;-78
2023/03/25 10:23:34;;;;;;;3.33;0.40;;;;;;;12.64;81.10;99532.56;5061599;28;20380;-79
2023/03/25 10:26:04;;;;;;;1.48;0.40;;;;;;;12.54;78.21;99534.63;5072673;28;20036;-78
2023/03/25 10:28:35;;;;;;;2.50;0.40;;;;;;;12.36;79.40;99525.44;5058035;28;20046;-79
2023/03/25 10:31:02;;;;;;;1.05;0.22;;;;;;;12.23;79.01;99514.34;5076081;28;20407;-78
2023/03/25 10:33:40;;;;;;;2.38;0.70;;;;;;;12.19;80.17;99512.72;5077029;28;20399;-78
2023/03/25 10:36:12;;;;;;;1.55;0.47;;;;;;;12.15;80.06;99505.78;5077007;28;20071;-79
2023/03/25 10:38:37;;;;;;;1.25;0.45;;;;;;;12.22;80.74;99512.63;5074660;28;20094;-79
2023/03/25 10:41:30;;;;;;;1.65;0.63;;;;;;;12.32;79.91;99493.88;5076710;28;20044;-78
2023/03/25 10:43:56;;;;;;;2.30;0.60;;;;;;;12.42;78.79;99513.84;5071329;28;20037;-78
2023/03/25 10:46:29;;;;;;;1.33;0.30;;;;;;;12.50;78.54;99490.66;5076134;28;20043;-78
2023/03/25 10:48:54;;;;;;;1.70;0.28;;;;;;;12.64;76.60;99487.56;5054585;28;20480;-79
2023/03/25 10:51:26;;;;;;;0.90;0.30;;;;;;;12.81;75.02;99489.69;5074899;28;20046;-78
2023/03/25 10:53:51;;;;;;;1.55;0.70;;;;;;;12.80;75.44;99495.91;5074372;28;20032;-79
2023/03/25 10:56:36;;;;;;;3.33;0.63;;;;;;;12.64;76.67;99485.78;5057165;28;20040;-79
2023/03/25 10:59:16;;;;;;;2.85;0.60;;;;;;;12.71;77.59;99487.34;5064884;28;20678;-79
2023/03/25 11:01:42;;;;;;;1.20;0.47;;;;;;;12.91;76.76;99486.69;5057505;28;20044;-78
2023/03/25 11:04:15;;;;;;;1.63;0.50;;;;;;;13.00;76.79;99489.97;5073999;28;20426;-79
2023/03/25 11:06:45;;;;;;;1.45;0.50;;;;;;;13.08;77.41;99488.78;5075628;28;20044;-79
2023/03/25 11:09:31;;;;;;;1.67;0.50;;;;;;;13.11;72.49;99488.69;5074619;28;20032;-79
2023/03/25 11:12:01;;;;;;;0.40;0.20;;;;;;;13.16;73.24;99475.31;5072355;28;20041;-80
2023/03/25 11:14:28;;;;;;;1.77;0.38;;;;;;;13.30;70.62;99475.72;5075922;28;20146;-78
2023/03/25 11:17:02;;;;;;;1.75;0.20;;;;;;;13.16;71.67;99470.84;5073197;28;20132;-81
2023/03/25 11:19:46;;;;;;;0.95;0.30;;;;;;;13.31;72.09;99477.47;5053678;28;20049;-80
2023/03/25 11:22:17;;;;;;;2.38;0.45;;;;;;;13.51;71.46;99468.81;5071488;28;20048;-79
2023/03/25 11:24:47;;;;;;;0.95;0.20;;;;;;;13.55;70.59;99462.50;5075343;28;20124;-81
2023/03/25 11:27:19;;;;;;;1.15;0.40;;;;;;;13.74;71.25;99467.13;5080189;28;20060;-81
2023/03/25 11:29:53;;;;;;;1.67;0.50;;;;;;;14.07;69.14;99458.84;5072663;28;20533;-79
2023/03/25 11:32:36;;;;;;;1.85;0.30;;;;;;;14.09;69.94;99464.97;5076144;28;20050;-79
2023/03/25 11:35:06;;;;;;;0.60;0.30;;;;;;;13.88;67.41;99458.66;5074464;28;20036;-80
2023/03/25 11:37:42;;;;;;;0.70;0.30;;;;;;;13.93;67.41;99459.38;5072800;28;20500;-79
2023/03/25 11:40:14;;;;;;;0.52;0.20;;;;;;;13.86;67.66;99442.84;5055864;28;20029;-80
2023/03/25 11:42:42;;;;;;;1.23;0.35;;;;;;;13.80;67.25;99464.25;5074489;28;20067;-80
2023/03/25 11:45:25;;;;;;;1.15;0.40;;;;;;;13.63;67.96;99448.97;5073398;28;20040;-79
2023/03/25 11:47:56;;;;;;;1.05;0.40;;;;;;;13.71;66.76;99459.28;5071695;28;20025;-80